Time,TemperatureF,DewpointF,PressureIn,WindDirection,WindDirectionDegrees,WindSpeedMPH,WindSpeedGustMPH,Humidity,HourlyPrecipIn,Conditions,Clouds,dailyrainin,SoftwareType,DateUTC
2013-05-16 00:11:00,55.8,53.0,29.62,WSW,252,0.0,-999.0,90,-99.99,,,0.00,weatherlink.com 1.10,2013-05-16 04:11:00,
2013-05-16 00:26:00,55.5,53.0,29.62,WNW,287,0.0,-999.0,90,-99.99,,,0.00,weatherlink.com 1.10,2013-05-16 04:26:00,
2013-05-16 00:41:00,55.2,53.0,29.61,West,281,0.0,-999.0,91,-99.99,,,0.00,weatherlink.com 1.10,2013-05-16 04:41:00,
2013-05-16 00:56:00,55.0,53.0,29.61,NW,315,0.0,-999.0,92,-99.99,,,0.00,weatherlink.com 1.10,2013-05-16 04:56:00,
2013-05-16 01:11:00,54.5,52.0,29.60,NW,315,1.0,-999.0,92,-99.99,,,0.00,weatherlink.com 1.10,2013-05-16 05:11:00,
2013-05-16 01:26:00,54.1,52.0,29.60,NW,315,0.0,-999.0,92,-99.99,,,0.00,weatherlink.com 1.10,2013-05-16 05:26:00,
2013-05-16 01:41:00,53.9,52.0,29.60,WNW,288,0.0,-999.0,93,-99.99,,,0.00,weatherlink.com 1.10,2013-05-16 05:41:00,
2013-05-16 01:56:00,53.6,52.0,29.60,WSW,248,0.0,-999.0,94,-99.99,,,0.00,weatherlink.com 1.10,2013-05-16 05:56:00,
2013-05-16 02:11:00,53.4,52.0,29.60,WSW,248,0.0,-999.0,94,-99.99,,,0.00,weatherlink.com 1.10,2013-05-16 06:11:00,
2013-05-16 02:26:00,53.1,52.0,29.60,WSW,250,0.0,-999.0,94,-99.99,,,0.00,weatherlink.com 1.10,2013-05-16 06:26:00,
2013-05-16 02:41:00,52.9,51.0,29.60,WSW,250,0.0,-999.0,94,-99.99,,,0.00,weatherlink.com 1.10,2013-05-16 06:41:00,
2013-05-16 02:56:00,52.8,52.0,29.59,WSW,250,0.0,-999.0,95,-99.99,,,0.00,weatherlink.com 1.10,2013-05-16 06:56:00,
2013-05-16 03:11:00,52.4,51.0,29.60,WSW,250,0.0,-999.0,95,-99.99,,,0.00,weatherlink.com 1.10,2013-05-16 07:11:00,
2013-05-16 03:26:00,52.3,51.0,29.59,WSW,250,0.0,-999.0,95,-99.99,,,0.00,weatherlink.com 1.10,2013-05-16 07:26:00,
2013-05-16 03:41:00,52.0,51.0,29.59,WSW,250,0.0,-999.0,95,-99.99,,,0.00,weatherlink.com 1.10,2013-05-16 07:41:00,
2013-05-16 03:56:00,51.5,50.0,29.59,WSW,250,0.0,-999.0,95,-99.99,,,0.00,weatherlink.com 1.10,2013-05-16 07:56:00,
2013-05-16 04:11:00,51.0,50.0,29.59,WSW,250,0.0,-999.0,95,-99.99,,,0.00,weatherlink.com 1.10,2013-05-16 08:11:00,
2013-05-16 04:26:00,50.6,49.0,29.59,WSW,250,0.0,-999.0,95,-99.99,,,0.00,weatherlink.com 1.10,2013-05-16 08:26:00,
2013-05-16 04:41:00,50.3,49.0,29.59,WSW,250,0.0,-999.0,95,-99.99,,,0.00,weatherlink.com 1.10,2013-05-16 08:41:00,
2013-05-16 04:56:00,50.1,49.0,29.59,WSW,250,0.0,-999.0,95,-99.99,,,0.00,weatherlink.com 1.10,2013-05-16 08:56:00,
2013-05-16 05:11:00,51.0,50.0,29.59,WSW,257,1.0,-999.0,95,-99.99,,,0.00,weatherlink.com 1.10,2013-05-16 09:11:00,
2013-05-16 05:26:00,52.1,50.0,29.60,West,263,1.0,-999.0,91,-99.99,,,0.00,weatherlink.com 1.10,2013-05-16 09:26:00,
2013-05-16 05:41:00,53.2,49.0,29.60,WNW,302,1.0,-999.0,85,-99.99,,,0.00,weatherlink.com 1.10,2013-05-16 09:41:00,
2013-05-16 05:56:00,54.8,49.0,29.61,WNW,294,0.0,-999.0,80,-99.99,,,0.00,weatherlink.com 1.10,2013-05-16 09:56:00,
2013-05-16 06:11:00,55.8,48.0,29.61,WNW,292,0.0,-999.0,76,-99.99,,,0.00,weatherlink.com 1.10,2013-05-16 10:11:00,
2013-05-16 06:26:00,56.4,47.0,29.61,NW,304,0.0,-999.0,72,-99.99,,,0.00,weatherlink.com 1.10,2013-05-16 10:26:00,
2013-05-16 06:41:00,57.6,47.0,29.61,NW,325,0.0,-999.0,68,-99.99,,,0.00,weatherlink.com 1.10,2013-05-16 10:41:00,
2013-05-16 06:56:00,58.6,47.0,29.62,WNW,292,0.0,-999.0,66,-99.99,,,0.00,weatherlink.com 1.10,2013-05-16 10:56:00,
2013-05-16 07:11:00,59.1,47.0,29.62,WSW,240,0.0,-999.0,65,-99.99,,,0.00,weatherlink.com 1.10,2013-05-16 11:11:00,
2013-05-16 07:26:00,59.7,47.0,29.63,West,259,0.0,-999.0,63,-99.99,,,0.00,weatherlink.com 1.10,2013-05-16 11:26:00,
2013-05-16 07:41:00,61.0,47.0,29.63,NW,305,0.0,-999.0,60,-99.99,,,0.00,weatherlink.com 1.10,2013-05-16 11:41:00,
2013-05-16 07:56:00,62.2,47.0,29.63,WNW,303,0.0,-999.0,58,-99.99,,,0.00,weatherlink.com 1.10,2013-05-16 11:56:00,
2013-05-16 08:11:00,62.7,46.0,29.63,NW,312,7.0,-999.0,55,-99.99,,,0.00,weatherlink.com 1.10,2013-05-16 12:11:00,
2013-05-16 08:26:00,63.1,46.0,29.63,NNW,335,1.0,-999.0,54,-99.99,,,0.00,weatherlink.com 1.10,2013-05-16 12:26:00,
2013-05-16 08:41:00,63.7,47.0,29.64,SW,227,4.0,-999.0,54,-99.99,,,0.00,weatherlink.com 1.10,2013-05-16 12:41:00,
2013-05-16 08:56:00,64.1,46.0,29.64,NNE,22,0.0,-999.0,53,-99.99,,,0.00,weatherlink.com 1.10,2013-05-16 12:56:00,
2013-05-16 09:11:00,65.1,46.0,29.64,SSW,213,0.0,-999.0,51,-99.99,,,0.00,weatherlink.com 1.10,2013-05-16 13:11:00,
2013-05-16 09:26:00,66.4,46.0,29.64,NNW,342,0.0,-999.0,49,-99.99,,,0.00,weatherlink.com 1.10,2013-05-16 13:26:00,
2013-05-16 09:41:00,67.8,46.0,29.63,SSW,211,4.0,-999.0,46,-99.99,,,0.00,weatherlink.com 1.10,2013-05-16 13:41:00,
2013-05-16 09:56:00,69.0,45.0,29.63,WNW,296,4.0,-999.0,43,-99.99,,,0.00,weatherlink.com 1.10,2013-05-16 13:56:00,
2013-05-16 10:11:00,70.5,44.0,29.64,NE,38,2.0,-999.0,38,-99.99,,,0.00,weatherlink.com 1.10,2013-05-16 14:11:00,
2013-05-16 10:26:00,70.7,44.0,29.64,NW,323,3.0,-999.0,38,-99.99,,,0.00,weatherlink.com 1.10,2013-05-16 14:26:00,
2013-05-16 10:41:00,71.2,45.0,29.64,NNW,329,1.0,-999.0,39,-99.99,,,0.00,weatherlink.com 1.10,2013-05-16 14:41:00,
2013-05-16 10:56:00,72.4,42.0,29.64,WNW,291,6.0,-999.0,33,-99.99,,,0.00,weatherlink.com 1.10,2013-05-16 14:56:00,
2013-05-16 11:11:00,73.2,42.0,29.64,NNW,341,5.0,-999.0,33,-99.99,,,0.00,weatherlink.com 1.10,2013-05-16 15:11:00,
2013-05-16 11:26:00,74.6,41.0,29.64,East,94,0.0,-999.0,30,-99.99,,,0.00,weatherlink.com 1.10,2013-05-16 15:26:00,
2013-05-16 11:41:00,75.8,41.0,29.64,WNW,296,0.0,-999.0,29,-99.99,,,0.00,weatherlink.com 1.10,2013-05-16 15:41:00,
2013-05-16 11:56:00,76.7,40.0,29.63,West,276,4.0,-999.0,27,-99.99,,,0.00,weatherlink.com 1.10,2013-05-16 15:56:00,
2013-05-16 12:12:00,77.3,39.0,29.62,NW,315,0.0,-999.0,25,-99.99,,,0.00,weatherlink.com 1.10,2013-05-16 16:12:00,
2013-05-16 12:27:00,77.2,39.0,29.62,NNW,342,4.0,-999.0,25,-99.99,,,0.00,weatherlink.com 1.10,2013-05-16 16:27:00,
2013-05-16 12:42:00,77.2,41.0,29.61,SSE,160,7.0,-999.0,27,-99.99,,,0.00,weatherlink.com 1.10,2013-05-16 16:42:00,
2013-05-16 12:57:00,79.1,38.0,29.60,WNW,292,2.0,-999.0,23,-99.99,,,0.00,weatherlink.com 1.10,2013-05-16 16:57:00,
2013-05-16 13:12:00,80.1,38.0,29.60,SW,228,12.0,-999.0,22,-99.99,,,0.00,weatherlink.com 1.10,2013-05-16 17:12:00,
2013-05-16 13:27:00,80.9,37.0,29.60,WNW,284,2.0,-999.0,21,-99.99,,,0.00,weatherlink.com 1.10,2013-05-16 17:27:00,
2013-05-16 13:42:00,81.0,38.0,29.59,WNW,290,0.0,-999.0,21,-99.99,,,0.00,weatherlink.com 1.10,2013-05-16 17:42:00,
2013-05-16 13:57:00,81.3,38.0,29.59,WSW,237,1.0,-999.0,21,-99.99,,,0.00,weatherlink.com 1.10,2013-05-16 17:57:00,
2013-05-16 14:12:00,82.3,40.0,29.59,ESE,115,0.0,-999.0,22,-99.99,,,0.00,weatherlink.com 1.10,2013-05-16 18:12:00,
2013-05-16 14:27:00,81.8,38.0,29.59,NW,317,4.0,-999.0,21,-99.99,,,0.00,weatherlink.com 1.10,2013-05-16 18:27:00,
2013-05-16 14:42:00,82.1,41.0,29.58,SW,229,3.0,-999.0,23,-99.99,,,0.00,weatherlink.com 1.10,2013-05-16 18:42:00,
2013-05-16 14:57:00,82.9,40.0,29.58,SW,225,5.0,-999.0,22,-99.99,,,0.00,weatherlink.com 1.10,2013-05-16 18:57:00,
2013-05-16 15:12:00,83.1,40.0,29.58,WNW,286,5.0,-999.0,22,-99.99,,,0.00,weatherlink.com 1.10,2013-05-16 19:12:00,
2013-05-16 15:27:00,82.8,39.0,29.57,NNW,329,0.0,-999.0,21,-99.99,,,0.00,weatherlink.com 1.10,2013-05-16 19:27:00,
2013-05-16 15:42:00,82.8,39.0,29.57,WSW,247,7.0,-999.0,21,-99.99,,,0.00,weatherlink.com 1.10,2013-05-16 19:42:00,
2013-05-16 15:57:00,82.8,40.0,29.57,South,184,0.0,-999.0,22,-99.99,,,0.00,weatherlink.com 1.10,2013-05-16 19:57:00,
2013-05-16 16:12:00,83.6,40.0,29.57,NW,313,6.0,-999.0,21,-99.99,,,0.00,weatherlink.com 1.10,2013-05-16 20:12:00,
2013-05-16 16:27:00,83.8,41.0,29.57,NNE,15,0.0,-999.0,22,-99.99,,,0.00,weatherlink.com 1.10,2013-05-16 20:27:00,
2013-05-16 16:42:00,82.9,39.0,29.57,NNW,339,3.0,-999.0,21,-99.99,,,0.00,weatherlink.com 1.10,2013-05-16 20:42:00,
2013-05-16 16:57:00,82.9,41.0,29.57,NW,309,1.0,-999.0,23,-99.99,,,0.00,weatherlink.com 1.10,2013-05-16 20:57:00,
2013-05-16 17:13:00,82.8,39.0,29.58,NNE,15,0.0,-999.0,21,-99.99,,,0.00,weatherlink.com 1.10,2013-05-16 21:13:00,
2013-05-16 17:27:00,82.3,40.0,29.57,NW,304,0.0,-999.0,22,-99.99,,,0.00,weatherlink.com 1.10,2013-05-16 21:27:00,
2013-05-16 17:42:00,82.4,40.0,29.58,North,360,0.0,-999.0,22,-99.99,,,0.00,weatherlink.com 1.10,2013-05-16 21:42:00,
2013-05-16 17:57:00,82.1,40.0,29.58,West,279,1.0,-999.0,22,-99.99,,,0.00,weatherlink.com 1.10,2013-05-16 21:57:00,
2013-05-16 18:12:00,82.0,38.0,29.58,SSW,209,2.0,-999.0,21,-99.99,,,0.00,weatherlink.com 1.10,2013-05-16 22:12:00,
2013-05-16 18:27:00,81.9,38.0,29.58,NNE,13,1.0,-999.0,21,-99.99,,,0.00,weatherlink.com 1.10,2013-05-16 22:27:00,
2013-05-16 18:42:00,81.9,39.0,29.59,WNW,297,0.0,-999.0,22,-99.99,,,0.00,weatherlink.com 1.10,2013-05-16 22:42:00,
2013-05-16 18:57:00,80.9,37.0,29.59,NNW,336,1.0,-999.0,21,-99.99,,,0.00,weatherlink.com 1.10,2013-05-16 22:57:00,
2013-05-16 19:12:00,79.4,37.0,29.60,NW,317,1.0,-999.0,22,-99.99,,,0.00,weatherlink.com 1.10,2013-05-16 23:12:00,
2013-05-16 19:27:00,78.6,38.0,29.60,NW,309,0.0,-999.0,23,-99.99,,,0.00,weatherlink.com 1.10,2013-05-16 23:27:00,
2013-05-16 19:42:00,77.6,38.0,29.61,WNW,296,0.0,-999.0,24,-99.99,,,0.00,weatherlink.com 1.10,2013-05-16 23:42:00,
2013-05-16 19:57:00,76.7,39.0,29.62,WNW,295,0.0,-999.0,26,-99.99,,,0.00,weatherlink.com 1.10,2013-05-16 23:57:00,
2013-05-16 20:12:00,75.8,39.0,29.62,WNW,297,0.0,-999.0,27,-99.99,,,0.00,weatherlink.com 1.10,2013-05-17 00:12:00,
2013-05-16 20:27:00,74.8,40.0,29.63,NW,317,0.0,-999.0,28,-99.99,,,0.00,weatherlink.com 1.10,2013-05-17 00:27:00,
2013-05-16 20:42:00,74.2,39.0,29.64,NNW,347,0.0,-999.0,28,-99.99,,,0.00,weatherlink.com 1.10,2013-05-17 00:42:00,
2013-05-16 20:57:00,73.9,39.0,29.66,NW,315,0.0,-999.0,28,-99.99,,,0.00,weatherlink.com 1.10,2013-05-17 00:57:00,
2013-05-16 21:12:00,73.9,38.0,29.67,WSW,245,3.0,-999.0,27,-99.99,,,0.00,weatherlink.com 1.10,2013-05-17 01:12:00,
2013-05-16 21:27:00,73.8,36.0,29.68,WNW,286,0.0,-999.0,25,-99.99,,,0.00,weatherlink.com 1.10,2013-05-17 01:27:00,
2013-05-16 21:42:00,73.3,35.0,29.68,NW,317,2.0,-999.0,25,-99.99,,,0.00,weatherlink.com 1.10,2013-05-17 01:42:00,
2013-05-16 21:57:00,73.0,34.0,29.68,NNW,343,3.0,-999.0,24,-99.99,,,0.00,weatherlink.com 1.10,2013-05-17 01:57:00,
2013-05-16 22:12:00,72.6,34.0,29.69,West,265,1.0,-999.0,24,-99.99,,,0.00,weatherlink.com 1.10,2013-05-17 02:12:00,
2013-05-16 22:27:00,72.0,34.0,29.69,WNW,290,0.0,-999.0,25,-99.99,,,0.00,weatherlink.com 1.10,2013-05-17 02:27:00,
2013-05-16 22:42:00,70.9,35.0,29.70,WNW,290,0.0,-999.0,27,-99.99,,,0.00,weatherlink.com 1.10,2013-05-17 02:42:00,
2013-05-16 22:57:00,69.9,34.0,29.71,NW,325,0.0,-999.0,27,-99.99,,,0.00,weatherlink.com 1.10,2013-05-17 02:57:00,
2013-05-16 23:12:00,69.4,35.0,29.72,NW,310,2.0,-999.0,28,-99.99,,,0.00,weatherlink.com 1.10,2013-05-17 03:12:00,
2013-05-16 23:27:00,68.5,35.0,29.72,NW,311,0.0,-999.0,29,-99.99,,,0.00,weatherlink.com 1.10,2013-05-17 03:27:00,
2013-05-16 23:42:00,67.2,36.0,29.74,NW,311,0.0,-999.0,32,-99.99,,,0.00,weatherlink.com 1.10,2013-05-17 03:42:00,
2013-05-16 23:57:00,66.4,41.0,29.75,North,351,0.0,-999.0,39,-99.99,,,0.00,weatherlink.com 1.10,2013-05-17 03:57:00,